createdAt,value
2023-05-05T00:00:00.684Z,100893.16
2023-05-05T00:03:02.852Z,100880.13
2023-05-05T00:06:05.669Z,100886.62
2023-05-05T00:09:07.783Z,100876.81
2023-05-05T00:12:09.680Z,100895.66
2023-05-05T00:15:11.642Z,100889.62
2023-05-05T00:18:14.924Z,100890.34
2023-05-05T00:21:16.973Z,100897.22
2023-05-05T00:24:18.991Z,100894.53
2023-05-05T00:27:20.969Z,100897.00
2023-05-05T00:30:23.191Z,100895.22
2023-05-05T00:33:25.809Z,100890.63
2023-05-05T00:36:28.761Z,100882.69
2023-05-05T00:39:30.787Z,100882.75
2023-05-05T00:42:40.444Z,100877.31
2023-05-05T00:45:44.264Z,100875.91
2023-05-05T00:48:46.219Z,100880.38
2023-05-05T00:51:48.180Z,100878.34
2023-05-05T00:54:50.375Z,100875.06
2023-05-05T00:57:52.359Z,100873.63
2023-05-05T01:00:54.306Z,100869.62
2023-05-05T01:03:56.265Z,100880.75
2023-05-05T01:07:13.436Z,100875.31
2023-05-05T01:10:21.950Z,100872.72
2023-05-05T01:13:30.279Z,100872.06
2023-05-05T01:16:33.405Z,100870.44
2023-05-05T01:19:55.649Z,100869.50
2023-05-05T01:22:58.791Z,100864.81
2023-05-05T01:26:21.477Z,100866.91
2023-05-05T01:29:29.229Z,100859.75
2023-05-05T01:32:36.255Z,100853.03
2023-05-05T01:35:41.862Z,100868.38
2023-05-05T01:38:44.074Z,100863.69
2023-05-05T01:41:47.329Z,100860.28
2023-05-05T01:44:49.268Z,100867.63
2023-05-05T01:47:51.404Z,100862.66
2023-05-05T01:50:53.479Z,100863.50
2023-05-05T01:53:57.195Z,100864.25
2023-05-05T01:56:59.152Z,100864.88
2023-05-05T02:00:01.771Z,100865.91
2023-05-05T02:03:04.512Z,100864.53
2023-05-05T02:06:06.556Z,100857.84
2023-05-05T02:09:09.799Z,100848.72
2023-05-05T02:12:11.788Z,100854.97
2023-05-05T02:15:14.514Z,100860.87
2023-05-05T02:18:17.020Z,100856.47
2023-05-05T02:21:20.164Z,100856.63
2023-05-05T02:24:22.025Z,100855.66
2023-05-05T02:27:24.010Z,100852.69
2023-05-05T02:30:25.908Z,100854.25
2023-05-05T02:33:28.318Z,100859.78
2023-05-05T02:36:30.242Z,100856.31
2023-05-05T02:39:33.319Z,100854.97
2023-05-05T02:42:36.228Z,100854.53
2023-05-05T02:45:38.187Z,100853.63
2023-05-05T02:48:40.060Z,100850.03
2023-05-05T02:51:42.632Z,100857.75
2023-05-05T02:54:44.567Z,100848.09
2023-05-05T02:58:06.892Z,100861.31
2023-05-05T03:01:27.784Z,100853.78
2023-05-05T03:04:32.065Z,100862.19
2023-05-05T03:07:47.941Z,100856.69
2023-05-05T03:11:08.473Z,100857.81
2023-05-05T03:14:12.142Z,100862.06
2023-05-05T03:17:14.073Z,100861.34
2023-05-05T03:20:16.049Z,100855.81
2023-05-05T03:23:21.105Z,100853.09
2023-05-05T03:26:23.160Z,100858.22
2023-05-05T03:29:25.534Z,100856.78
2023-05-05T03:32:27.690Z,100860.53
2023-05-05T03:35:29.674Z,100851.53
2023-05-05T03:38:31.876Z,100855.34
2023-05-05T03:41:33.808Z,100856.50
2023-05-05T03:44:35.847Z,100858.22
2023-05-05T03:47:37.755Z,100857.81
2023-05-05T03:50:39.734Z,100859.72
2023-05-05T03:53:41.946Z,100863.03
2023-05-05T03:56:43.928Z,100859.72
2023-05-05T03:59:46.000Z,100866.25
2023-05-05T04:02:48.086Z,100871.19
2023-05-05T04:05:49.998Z,100870.94
2023-05-05T04:08:51.974Z,100868.28
2023-05-05T04:11:53.820Z,100869.62
2023-05-05T04:14:55.784Z,100876.59
2023-05-05T04:17:57.748Z,100880.03
2023-05-05T04:20:59.802Z,100885.50
2023-05-05T04:24:01.892Z,100873.88
2023-05-05T04:27:03.842Z,100874.56
2023-05-05T04:30:07.035Z,100869.91
2023-05-05T04:33:09.447Z,100879.56
2023-05-05T04:36:11.801Z,100868.84
2023-05-05T04:39:13.766Z,100882.53
2023-05-05T04:42:15.978Z,100890.41
2023-05-05T04:45:17.801Z,100884.56
2023-05-05T04:48:21.024Z,100891.69
2023-05-05T04:51:22.920Z,100889.34
2023-05-05T04:54:24.856Z,100892.69
2023-05-05T04:57:26.812Z,100897.50
2023-05-05T05:00:28.723Z,100899.72
2023-05-05T05:03:32.018Z,100896.22
2023-05-05T05:06:34.414Z,100902.03
2023-05-05T05:09:36.243Z,100903.03
2023-05-05T05:12:38.370Z,100901.66
2023-05-05T05:15:40.811Z,100905.13
2023-05-05T05:18:42.949Z,100909.94
2023-05-05T05:21:44.978Z,100901.22
2023-05-05T05:24:47.001Z,100898.78
2023-05-05T05:28:02.323Z,100890.63
2023-05-05T05:31:11.153Z,100902.06
2023-05-05T05:34:13.259Z,100907.28
2023-05-05T05:37:15.091Z,100908.34
2023-05-05T05:40:17.057Z,100907.84
2023-05-05T05:43:18.999Z,100915.53
2023-05-05T05:46:21.453Z,100909.53
2023-05-05T05:49:23.551Z,100918.84
2023-05-05T05:52:25.592Z,100913.69
2023-05-05T05:55:27.543Z,100913.12
2023-05-05T05:58:29.448Z,100910.53
2023-05-05T06:01:31.364Z,100920.41
2023-05-05T06:04:33.436Z,100908.25
2023-05-05T06:07:35.361Z,100909.53
2023-05-05T06:10:37.273Z,100923.59
2023-05-05T06:13:39.298Z,100910.47
2023-05-05T06:16:41.308Z,100918.44
2023-05-05T06:19:43.475Z,100924.87
2023-05-05T06:22:45.417Z,100921.50
2023-05-05T06:25:47.723Z,100917.00
2023-05-05T06:28:49.653Z,100918.50
2023-05-05T06:31:51.938Z,100896.03
2023-05-05T06:34:53.940Z,100902.44
2023-05-05T06:37:55.910Z,100905.63
2023-05-05T06:41:00.985Z,100907.41
2023-05-05T06:44:02.972Z,100897.56
2023-05-05T06:47:04.933Z,100901.75
2023-05-05T06:50:07.918Z,100899.22
2023-05-05T06:53:10.125Z,100896.16
2023-05-05T06:56:12.101Z,100895.63
2023-05-05T06:59:13.975Z,100892.16
2023-05-05T07:02:17.252Z,100891.28
2023-05-05T07:05:19.284Z,100888.94
2023-05-05T07:08:21.292Z,100900.22
2023-05-05T07:11:23.301Z,100890.75
2023-05-05T07:14:25.225Z,100887.78
2023-05-05T07:17:27.510Z,100892.78
2023-05-05T07:20:29.684Z,100894.97
2023-05-05T07:23:31.701Z,100883.84
2023-05-05T07:26:33.640Z,100884.78
2023-05-05T07:29:36.033Z,100882.84
2023-05-05T07:32:37.924Z,100874.44
2023-05-05T07:35:40.001Z,100881.25
2023-05-05T07:38:41.926Z,100886.19
2023-05-05T07:41:44.336Z,100886.44
2023-05-05T07:44:46.770Z,100891.66
2023-05-05T07:47:48.915Z,100882.66
2023-05-05T07:50:52.572Z,100882.22
2023-05-05T07:53:55.212Z,100885.75
2023-05-05T07:56:57.520Z,100881.41
2023-05-05T07:59:59.814Z,100882.03
2023-05-05T08:03:01.893Z,100880.84
2023-05-05T08:06:10.965Z,100885.28
2023-05-05T08:09:13.162Z,100879.50
2023-05-05T08:12:17.976Z,100873.09
2023-05-05T08:15:20.100Z,100870.53
2023-05-05T08:18:22.181Z,100867.69
2023-05-05T08:21:24.108Z,100868.63
2023-05-05T08:24:26.039Z,100871.28
2023-05-05T08:27:27.874Z,100852.09
2023-05-05T08:30:32.444Z,100868.19
2023-05-05T08:33:34.388Z,100862.97
2023-05-05T08:36:36.740Z,100870.22
2023-05-05T08:39:38.859Z,100857.09
2023-05-05T08:42:41.709Z,100869.31
2023-05-05T08:45:43.810Z,100857.59
2023-05-05T08:48:46.211Z,100867.37
2023-05-05T08:51:48.528Z,100872.28
2023-05-05T08:54:52.004Z,100865.28
2023-05-05T08:57:57.822Z,100851.09
2023-05-05T09:01:01.832Z,100849.19
2023-05-05T09:04:04.493Z,100857.25
2023-05-05T09:07:06.423Z,100858.44
2023-05-05T09:10:08.986Z,100845.41
2023-05-05T09:13:11.201Z,100838.75
2023-05-05T09:16:32.657Z,100833.41
2023-05-05T09:19:34.522Z,100850.87
2023-05-05T09:22:36.834Z,100843.53
2023-05-05T09:25:39.359Z,100846.09
2023-05-05T09:28:42.095Z,100839.00
2023-05-05T09:31:43.996Z,100837.94
2023-05-05T09:34:56.792Z,100821.66
2023-05-05T09:37:58.967Z,100815.72
2023-05-05T09:41:00.832Z,100810.25
2023-05-05T09:44:02.731Z,100810.06
2023-05-05T09:47:09.386Z,100812.22
2023-05-05T09:50:16.416Z,100805.03
2023-05-05T09:53:18.526Z,100814.84
2023-05-05T09:56:20.896Z,100818.69
2023-05-05T09:59:23.270Z,100812.50
2023-05-05T10:02:35.213Z,100805.94
2023-05-05T10:05:46.828Z,100798.69
2023-05-05T10:08:51.206Z,100814.62
2023-05-05T10:11:53.466Z,100804.34
2023-05-05T10:14:55.970Z,100794.69
2023-05-05T10:18:06.806Z,100789.75
2023-05-05T10:21:09.872Z,100788.09
2023-05-05T10:24:12.462Z,100788.72
2023-05-05T10:27:19.887Z,100781.88
2023-05-05T10:30:28.615Z,100788.59
2023-05-05T10:33:40.435Z,100783.97
2023-05-05T10:36:42.972Z,100789.00
2023-05-05T10:39:45.143Z,100769.41
2023-05-05T10:42:48.243Z,100765.28
2023-05-05T10:45:50.294Z,100764.12
2023-05-05T10:49:04.592Z,100771.28
2023-05-05T10:52:19.174Z,100754.50
2023-05-05T10:55:28.576Z,100755.63
2023-05-05T10:58:47.059Z,100759.44
2023-05-05T11:01:57.952Z,100746.25
2023-05-05T11:05:14.496Z,100746.97
2023-05-05T11:08:26.569Z,100744.75
2023-05-05T11:11:48.295Z,100731.50
2023-05-05T11:15:08.967Z,100728.41
2023-05-05T11:18:28.447Z,100716.94
2023-05-05T11:21:30.315Z,100717.91
2023-05-05T11:24:32.293Z,100726.09
2023-05-05T11:28:04.218Z,100714.75
2023-05-05T11:31:06.366Z,100718.78
2023-05-05T11:34:23.943Z,100707.59
2023-05-05T11:37:27.153Z,100710.34
2023-05-05T11:40:29.569Z,100705.19
2023-05-05T11:43:31.718Z,100687.72
2023-05-05T11:46:33.715Z,100687.25
2023-05-05T11:49:36.399Z,100687.13
2023-05-05T11:52:38.869Z,100688.31
2023-05-05T11:55:43.264Z,100676.19
2023-05-05T11:58:45.716Z,100668.63
2023-05-05T12:01:47.684Z,100675.28
2023-05-05T12:04:50.240Z,100680.72
2023-05-05T12:07:56.518Z,100668.03
2023-05-05T12:11:11.180Z,100678.00
2023-05-05T12:14:13.475Z,100675.06
2023-05-05T12:17:15.470Z,100664.06
2023-05-05T12:20:17.320Z,100654.81
2023-05-05T12:23:19.266Z,100659.34
2023-05-05T12:26:28.225Z,100663.41
2023-05-05T12:29:30.112Z,100648.09
2023-05-05T12:32:32.818Z,100658.13
2023-05-05T12:35:34.911Z,100652.16
2023-05-05T12:38:36.862Z,100654.66
2023-05-05T12:41:38.832Z,100656.28
2023-05-05T12:44:40.980Z,100655.06
2023-05-05T12:47:44.758Z,100645.91
2023-05-05T12:50:46.808Z,100646.78
2023-05-05T12:53:52.475Z,100644.28
2023-05-05T12:56:54.387Z,100656.88
2023-05-05T12:59:56.991Z,100645.81
2023-05-05T13:02:59.307Z,100633.94
2023-05-05T13:06:01.682Z,100630.97
2023-05-05T13:09:04.284Z,100628.81
2023-05-05T13:12:08.373Z,100626.16
2023-05-05T13:15:10.921Z,100621.47
2023-05-05T13:18:13.005Z,100613.84
2023-05-05T13:21:15.139Z,100605.44
2023-05-05T13:27:22.041Z,100603.66
2023-05-05T13:30:23.991Z,100602.53
2023-05-05T13:33:26.288Z,100596.44
2023-05-05T13:36:28.211Z,100602.06
2023-05-05T13:39:30.139Z,100591.34
2023-05-05T13:42:32.091Z,100587.53
2023-05-05T13:45:34.049Z,100580.50
2023-05-05T13:48:36.262Z,100581.19
2023-05-05T13:51:39.000Z,100577.59
2023-05-05T13:54:40.922Z,100575.28
2023-05-05T13:57:43.261Z,100577.09
2023-05-05T14:00:45.297Z,100574.91
2023-05-05T14:03:49.545Z,100570.28
2023-05-05T14:06:51.599Z,100578.16
2023-05-05T14:09:53.843Z,100571.03
2023-05-05T14:12:55.740Z,100564.25
2023-05-05T14:15:58.525Z,100566.06
2023-05-05T14:19:00.506Z,100574.69
2023-05-05T14:22:02.400Z,100567.38
2023-05-05T14:25:04.496Z,100560.59
2023-05-05T14:28:06.497Z,100563.91
2023-05-05T14:31:08.684Z,100569.66
2023-05-05T14:34:10.560Z,100557.22
2023-05-05T14:37:12.591Z,100563.19
2023-05-05T14:40:14.504Z,100562.06
2023-05-05T14:43:16.432Z,100550.69
2023-05-05T14:46:18.989Z,100549.72
2023-05-05T14:49:21.055Z,100555.09
2023-05-05T14:52:22.928Z,100556.84
2023-05-05T14:55:25.172Z,100555.41
2023-05-05T14:58:27.190Z,100544.75
2023-05-05T15:01:29.508Z,100547.34
2023-05-05T15:04:31.508Z,100544.16
2023-05-05T15:07:33.710Z,100546.47
2023-05-05T15:10:35.560Z,100543.62
2023-05-05T15:13:40.179Z,100539.41
2023-05-05T15:16:42.106Z,100541.91
2023-05-05T15:19:44.004Z,100543.56
2023-05-05T15:22:47.410Z,100544.44
2023-05-05T15:25:50.034Z,100544.31
2023-05-05T15:28:52.801Z,100543.59
2023-05-05T15:31:54.750Z,100541.75
2023-05-05T15:34:56.738Z,100531.34
2023-05-05T15:37:58.601Z,100533.66
2023-05-05T15:41:00.601Z,100528.75
2023-05-05T15:44:04.727Z,100530.28
2023-05-05T15:47:06.911Z,100525.66
2023-05-05T15:50:09.181Z,100524.50
2023-05-05T15:53:11.084Z,100526.81
2023-05-05T15:56:13.058Z,100525.88
2023-05-05T15:59:15.148Z,100521.59
2023-05-05T16:02:17.469Z,100519.22
2023-05-05T16:05:21.422Z,100511.69
2023-05-05T16:08:24.866Z,100524.59
2023-05-05T16:11:27.164Z,100520.31
2023-05-05T16:14:29.295Z,100519.31
2023-05-05T16:17:31.402Z,100511.31
2023-05-05T16:20:33.430Z,100507.87
2023-05-05T16:23:35.493Z,100516.50
2023-05-05T16:26:37.473Z,100509.31
2023-05-05T16:29:39.548Z,100508.78
2023-05-05T16:32:42.259Z,100512.59
2023-05-05T16:35:45.690Z,100508.34
2023-05-05T16:38:48.021Z,100514.53
2023-05-05T16:41:50.232Z,100510.84
2023-05-05T16:44:52.264Z,100507.84
2023-05-05T16:47:55.495Z,100508.59
2023-05-05T16:50:58.044Z,100506.50
2023-05-05T16:54:00.177Z,100505.28
2023-05-05T16:57:03.720Z,100508.03
2023-05-05T17:00:06.596Z,100497.16
2023-05-05T17:03:08.502Z,100506.06
2023-05-05T17:06:12.494Z,100508.31
2023-05-05T17:09:14.574Z,100513.84
2023-05-05T17:12:16.443Z,100502.84
2023-05-05T17:15:18.494Z,100515.47
2023-05-05T17:18:23.006Z,100503.12
2023-05-05T17:21:24.988Z,100511.19
2023-05-05T17:24:26.870Z,100511.69
2023-05-05T17:27:28.898Z,100512.41
2023-05-05T17:30:30.946Z,100511.28
2023-05-05T17:33:32.810Z,100507.87
2023-05-05T17:36:35.488Z,100512.53
2023-05-05T17:39:37.343Z,100512.84
2023-05-05T17:42:39.189Z,100521.47
2023-05-05T17:45:42.326Z,100514.03
2023-05-05T17:48:44.513Z,100520.31
2023-05-05T17:51:46.362Z,100518.78
2023-05-05T17:54:49.345Z,100520.56
2023-05-05T17:57:51.458Z,100514.34
2023-05-05T18:00:53.400Z,100516.13
2023-05-05T18:03:55.490Z,100524.91
2023-05-05T18:06:57.392Z,100524.06
2023-05-05T18:09:59.279Z,100525.13
2023-05-05T18:13:01.593Z,100517.78
2023-05-05T18:16:03.874Z,100526.31
2023-05-05T18:19:06.132Z,100526.91
2023-05-05T18:22:08.071Z,100528.44
2023-05-05T18:25:10.316Z,100532.03
2023-05-05T18:28:12.529Z,100539.22
2023-05-05T18:31:14.517Z,100535.59
2023-05-05T18:34:16.953Z,100544.94
2023-05-05T18:37:19.081Z,100537.03
2023-05-05T18:40:21.724Z,100543.13
2023-05-05T18:43:23.542Z,100534.94
2023-05-05T18:46:25.403Z,100542.22
2023-05-05T18:49:30.310Z,100545.25
2023-05-05T18:52:33.322Z,100542.22
2023-05-05T18:55:35.291Z,100558.38
2023-05-05T18:58:37.176Z,100551.56
2023-05-05T19:01:39.026Z,100556.47
2023-05-05T19:04:41.680Z,100552.25
2023-05-05T19:07:43.650Z,100565.28
2023-05-05T19:10:45.917Z,100566.13
2023-05-05T19:13:47.775Z,100577.62
2023-05-05T19:16:49.735Z,100579.84
2023-05-05T19:19:51.763Z,100579.84
2023-05-05T19:22:53.784Z,100567.56
2023-05-05T19:25:55.864Z,100570.06
2023-05-05T19:28:57.772Z,100574.06
2023-05-05T19:31:59.787Z,100577.03
2023-05-05T19:35:01.943Z,100570.50
2023-05-05T19:38:03.865Z,100572.06
2023-05-05T19:41:05.713Z,100558.19
2023-05-05T19:44:07.556Z,100575.22
2023-05-05T19:47:10.948Z,100562.16
2023-05-05T19:50:15.421Z,100574.28
2023-05-05T19:53:17.764Z,100576.03
2023-05-05T19:56:19.597Z,100569.16
2023-05-05T19:59:21.519Z,100567.31
2023-05-05T20:02:26.505Z,100576.34
2023-05-05T20:05:28.528Z,100566.84
2023-05-05T20:08:30.647Z,100571.09
2023-05-05T20:11:32.626Z,100570.75
2023-05-05T20:14:34.757Z,100577.06
2023-05-05T20:17:36.904Z,100575.00
2023-05-05T20:20:38.964Z,100571.34
2023-05-05T20:23:42.829Z,100574.28
2023-05-05T20:26:47.015Z,100576.94
2023-05-05T20:29:48.854Z,100569.91
2023-05-05T20:32:50.984Z,100564.66
2023-05-05T20:35:52.843Z,100568.66
2023-05-05T20:38:54.961Z,100563.81
2023-05-05T20:41:56.927Z,100559.91
2023-05-05T20:44:59.809Z,100568.94
2023-05-05T20:48:02.122Z,100569.28
2023-05-05T20:51:04.566Z,100563.56
2023-05-05T20:54:06.490Z,100569.66
2023-05-05T20:57:08.538Z,100571.22
2023-05-05T21:00:10.834Z,100581.69
2023-05-05T21:03:13.111Z,100572.75
2023-05-05T21:06:15.090Z,100562.44
2023-05-05T21:09:17.233Z,100566.03
2023-05-05T21:12:19.121Z,100559.94
2023-05-05T21:15:21.101Z,100561.12
2023-05-05T21:18:25.812Z,100556.00
2023-05-05T21:21:27.769Z,100564.47
2023-05-05T21:24:29.678Z,100557.38
2023-05-05T21:27:31.990Z,100559.91
2023-05-05T21:30:33.852Z,100557.97
2023-05-05T21:33:35.896Z,100564.47
2023-05-05T21:36:38.752Z,100561.16
2023-05-05T21:39:41.741Z,100564.16
2023-05-05T21:42:43.756Z,100559.25
2023-05-05T21:45:45.803Z,100550.41
2023-05-05T21:48:47.979Z,100547.12
2023-05-05T21:51:50.149Z,100552.31
2023-05-05T21:54:52.015Z,100550.34
2023-05-05T21:57:53.896Z,100543.28
2023-05-05T22:00:55.938Z,100535.41
2023-05-05T22:03:58.052Z,100534.41
2023-05-05T22:07:00.068Z,100537.66
2023-05-05T22:10:03.709Z,100538.41
2023-05-05T22:13:05.665Z,100537.56
2023-05-05T22:16:08.115Z,100544.59
2023-05-05T22:19:09.999Z,100542.16
2023-05-05T22:22:11.947Z,100551.59
2023-05-05T22:25:13.781Z,100545.22
2023-05-05T22:28:15.675Z,100542.75
2023-05-05T22:31:17.520Z,100549.47
2023-05-05T22:34:22.845Z,100547.97
2023-05-05T22:37:25.462Z,100548.81
2023-05-05T22:40:28.741Z,100559.25
2023-05-05T22:43:30.590Z,100559.47
2023-05-05T22:46:32.800Z,100557.03
2023-05-05T22:49:35.160Z,100565.16
2023-05-05T22:52:37.443Z,100560.34
2023-05-05T22:55:39.224Z,100561.41
2023-05-05T22:58:41.299Z,100565.69
2023-05-05T23:01:43.216Z,100563.28
2023-05-05T23:04:47.720Z,100563.44
2023-05-05T23:07:49.748Z,100563.63
2023-05-05T23:10:51.741Z,100559.37
2023-05-05T23:13:56.372Z,100561.53
2023-05-05T23:16:58.438Z,100560.41
2023-05-05T23:20:00.520Z,100554.53
2023-05-05T23:23:02.538Z,100552.78
2023-05-05T23:26:04.581Z,100558.56
2023-05-05T23:29:06.462Z,100561.56
2023-05-05T23:32:08.322Z,100551.56
2023-05-05T23:35:11.187Z,100549.56
2023-05-05T23:38:13.366Z,100548.97
2023-05-05T23:41:15.248Z,100546.50
2023-05-05T23:44:17.107Z,100545.31
2023-05-05T23:47:19.066Z,100553.16
2023-05-05T23:50:21.057Z,100554.22
2023-05-05T23:53:23.022Z,100555.56
2023-05-05T23:56:24.890Z,100548.34
2023-05-05T23:59:27.140Z,100548.44
